sensor_id;sensor_type;location;lat;lon;timestamp;pressure;altitude;pressure_sealevel;temperature;humidity
58467;BME280;44255;49.244;7.726;2023-02-01T04:31:01;98896.34;;;1.74;70.78
58467;BME280;44255;49.244;7.726;2023-02-01T04:33:27;98886.19;;;2.25;69.14
58467;BME280;44255;49.244;7.726;2023-02-01T04:35:52;98881.84;;;1.88;69.99
58467;BME280;44255;49.244;7.726;2023-02-01T04:38:18;98884.44;;;2.25;68.42
58467;BME280;44255;49.244;7.726;2023-02-01T04:40:43;98876.47;;;1.91;69.45
58467;BME280;44255;49.244;7.726;2023-02-01T04:43:08;98879.19;;;1.88;70.69
58467;BME280;44255;49.244;7.726;2023-02-01T04:45:34;98877.47;;;1.87;69.71
58467;BME280;44255;49.244;7.726;2023-02-01T04:47:59;98868.19;;;2.35;69.21
58467;BME280;44255;49.244;7.726;2023-02-01T04:50:24;98879.88;;;1.96;69.30
58467;BME280;44255;49.244;7.726;2023-02-01T04:52:49;98869.88;;;2.06;69.47
58467;BME280;44255;49.244;7.726;2023-02-01T04:55:15;98866.03;;;2.16;68.63
58467;BME280;44255;49.244;7.726;2023-02-01T04:57:40;98862.78;;;1.72;70.20
58467;BME280;44255;49.244;7.726;2023-02-01T05:00:07;98878.19;;;1.92;70.02
58467;BME280;44255;49.244;7.726;2023-02-01T05:02:33;98867.44;;;1.98;69.75
58467;BME280;44255;49.244;7.726;2023-02-01T05:05:00;98896.13;;;1.47;71.02
58467;BME280;44255;49.244;7.726;2023-02-01T05:07:25;98886.34;;;1.49;70.21
58467;BME280;44255;49.244;7.726;2023-02-01T05:09:50;98890.34;;;1.67;71.59
58467;BME280;44255;49.244;7.726;2023-02-01T05:12:16;98895.94;;;1.93;70.43
58467;BME280;44255;49.244;7.726;2023-02-01T05:15:00;98888.63;;;2.00;69.39
58467;BME280;44255;49.244;7.726;2023-02-01T05:17:25;98888.03;;;2.56;67.63
58467;BME280;44255;49.244;7.726;2023-02-01T05:19:50;98902.34;;;2.19;68.82
58467;BME280;44255;49.244;7.726;2023-02-01T05:22:15;98892.09;;;2.03;69.01
58467;BME280;44255;49.244;7.726;2023-02-01T05:24:41;98899.06;;;2.07;68.88
58467;BME280;44255;49.244;7.726;2023-02-01T05:27:06;98888.59;;;2.01;67.86
58467;BME280;44255;49.244;7.726;2023-02-01T05:29:31;98881.53;;;2.02;68.44
58467;BME280;44255;49.244;7.726;2023-02-01T05:31:56;98875.81;;;2.16;68.85
58467;BME280;44255;49.244;7.726;2023-02-01T05:34:22;98885.44;;;2.21;68.15
58467;BME280;44255;49.244;7.726;2023-02-01T05:36:47;98878.38;;;1.86;69.49
58467;BME280;44255;49.244;7.726;2023-02-01T05:39:12;98879.31;;;2.18;68.79
58467;BME280;44255;49.244;7.726;2023-02-01T05:41:38;98888.13;;;2.20;67.94
58467;BME280;44255;49.244;7.726;2023-02-01T05:44:03;98887.50;;;2.10;67.98
58467;BME280;44255;49.244;7.726;2023-02-01T05:46:28;98875.59;;;2.88;65.86
58467;BME280;44255;49.244;7.726;2023-02-01T05:48:54;98881.75;;;2.25;66.58
58467;BME280;44255;49.244;7.726;2023-02-01T05:51:19;98872.41;;;2.45;65.82
58467;BME280;44255;49.244;7.726;2023-02-01T05:53:44;98877.97;;;2.67;66.33
58467;BME280;44255;49.244;7.726;2023-02-01T05:56:09;98873.66;;;2.63;66.19
58467;BME280;44255;49.244;7.726;2023-02-01T05:58:35;98875.00;;;2.14;67.54
58467;BME280;44255;49.244;7.726;2023-02-01T06:01:01;98865.69;;;2.30;68.24
58467;BME280;44255;49.244;7.726;2023-02-01T06:03:27;98871.84;;;2.65;66.62
58467;BME280;44255;49.244;7.726;2023-02-01T06:05:53;98878.59;;;2.46;67.40
58467;BME280;44255;49.244;7.726;2023-02-01T06:08:18;98876.88;;;2.43;66.94
58467;BME280;44255;49.244;7.726;2023-02-01T06:10:43;98882.81;;;2.53;66.39
58467;BME280;44255;49.244;7.726;2023-02-01T06:13:09;98906.28;;;1.67;69.00
58467;BME280;44255;49.244;7.726;2023-02-01T06:15:34;98897.69;;;2.60;67.41
58467;BME280;44255;49.244;7.726;2023-02-01T06:18:00;98904.56;;;2.01;68.07
58467;BME280;44255;49.244;7.726;2023-02-01T06:20:25;98894.94;;;1.95;69.32
58467;BME280;44255;49.244;7.726;2023-02-01T06:22:51;98900.38;;;1.91;68.90
58467;BME280;44255;49.244;7.726;2023-02-01T06:25:17;98905.84;;;1.85;69.06
58467;BME280;44255;49.244;7.726;2023-02-01T06:27:43;98903.03;;;2.25;68.52
58467;BME280;44255;49.244;7.726;2023-02-01T06:30:10;98896.09;;;2.20;68.71
58467;BME280;44255;49.244;7.726;2023-02-01T06:32:39;98896.09;;;2.20;68.26
58467;BME280;44255;49.244;7.726;2023-02-01T06:35:06;98875.22;;;2.37;67.91
58467;BME280;44255;49.244;7.726;2023-02-01T06:37:33;98883.94;;;1.76;69.60
58467;BME280;44255;49.244;7.726;2023-02-01T06:39:59;98891.00;;;1.77;69.14
58467;BME280;44255;49.244;7.726;2023-02-01T06:42:24;98892.28;;;2.30;67.17
58467;BME280;44255;49.244;7.726;2023-02-01T06:44:50;98898.50;;;1.96;68.51
58467;BME280;44255;49.244;7.726;2023-02-01T06:47:15;98896.16;;;2.51;66.50
58467;BME280;44255;49.244;7.726;2023-02-01T06:49:41;98897.97;;;2.16;67.48
58467;BME280;44255;49.244;7.726;2023-02-01T06:52:06;98904.44;;;2.06;67.84
58467;BME280;44255;49.244;7.726;2023-02-01T06:54:31;98901.78;;;2.41;66.46
58467;BME280;44255;49.244;7.726;2023-02-01T06:56:58;98899.97;;;2.06;67.56
58467;BME280;44255;49.244;7.726;2023-02-01T06:59:24;98890.34;;;2.37;66.00
58467;BME280;44255;49.244;7.726;2023-02-01T07:01:49;98890.06;;;2.13;67.77
58467;BME280;44255;49.244;7.726;2023-02-01T07:04:14;98885.22;;;1.94;67.81
58467;BME280;44255;49.244;7.726;2023-02-01T07:06:40;98887.97;;;1.91;68.04
58467;BME280;44255;49.244;7.726;2023-02-01T07:09:06;98883.34;;;2.33;66.67
58467;BME280;44255;49.244;7.726;2023-02-01T07:11:32;98901.25;;;1.91;67.60
58467;BME280;44255;49.244;7.726;2023-02-01T07:13:58;98903.53;;;2.07;66.36
58467;BME280;44255;49.244;7.726;2023-02-01T07:16:23;98914.19;;;2.05;66.45
58467;BME280;44255;49.244;7.726;2023-02-01T07:18:50;98916.22;;;1.95;68.22
58467;BME280;44255;49.244;7.726;2023-02-01T07:21:16;98921.50;;;1.61;68.97
58467;BME280;44255;49.244;7.726;2023-02-01T07:23:41;98919.78;;;1.94;67.48
58467;BME280;44255;49.244;7.726;2023-02-01T07:26:09;98920.06;;;2.18;67.17
58467;BME280;44255;49.244;7.726;2023-02-01T07:28:35;98922.69;;;2.20;66.03
58467;BME280;44255;49.244;7.726;2023-02-01T07:31:03;98917.38;;;2.20;66.98
58467;BME280;44255;49.244;7.726;2023-02-01T07:33:28;98910.28;;;2.20;65.69
58467;BME280;44255;49.244;7.726;2023-02-01T07:35:53;98909.75;;;2.41;65.75
58467;BME280;44255;49.244;7.726;2023-02-01T07:38:19;98916.03;;;2.71;64.49
58467;BME280;44255;49.244;7.726;2023-02-01T07:40:46;98906.63;;;3.19;63.35
58467;BME280;44255;49.244;7.726;2023-02-01T07:43:12;98912.31;;;2.44;64.24
58467;BME280;44255;49.244;7.726;2023-02-01T07:45:37;98912.31;;;3.07;63.10
58467;BME280;44255;49.244;7.726;2023-02-01T07:48:03;98931.44;;;2.58;64.54
58467;BME280;44255;49.244;7.726;2023-02-01T07:50:29;98924.22;;;2.30;65.74
58467;BME280;44255;49.244;7.726;2023-02-01T07:52:54;98918.63;;;2.73;64.31
58467;BME280;44255;49.244;7.726;2023-02-01T07:55:20;98917.19;;;2.61;64.71
58467;BME280;44255;49.244;7.726;2023-02-01T07:57:45;98907.66;;;2.84;63.86
58467;BME280;44255;49.244;7.726;2023-02-01T08:00:11;98923.16;;;2.03;65.86
58467;BME280;44255;49.244;7.726;2023-02-01T08:02:59;98922.72;;;2.85;63.83
58467;BME280;44255;49.244;7.726;2023-02-01T08:05:25;98926.66;;;2.38;64.83
58467;BME280;44255;49.244;7.726;2023-02-01T08:07:50;98941.03;;;1.58;67.27
58467;BME280;44255;49.244;7.726;2023-02-01T08:10:17;98926.28;;;2.17;66.41
58467;BME280;44255;49.244;7.726;2023-02-01T08:12:43;98940.19;;;1.56;66.84
58467;BME280;44255;49.244;7.726;2023-02-01T08:15:13;98942.47;;;2.44;64.78
58467;BME280;44255;49.244;7.726;2023-02-01T08:17:38;98938.84;;;2.12;65.31
58467;BME280;44255;49.244;7.726;2023-02-01T08:20:03;98934.41;;;2.13;65.62
58467;BME280;44255;49.244;7.726;2023-02-01T08:22:31;98945.72;;;2.21;65.09
58467;BME280;44255;49.244;7.726;2023-02-01T08:24:57;98953.06;;;2.11;65.88
58467;BME280;44255;49.244;7.726;2023-02-01T08:27:26;98954.28;;;2.32;64.95
58467;BME280;44255;49.244;7.726;2023-02-01T08:29:51;98952.44;;;2.36;65.46
58467;BME280;44255;49.244;7.726;2023-02-01T08:32:18;98967.78;;;2.24;64.01
58467;BME280;44255;49.244;7.726;2023-02-01T08:34:43;98955.41;;;2.58;63.57
58467;BME280;44255;49.244;7.726;2023-02-01T08:37:08;98969.09;;;2.08;65.37
58467;BME280;44255;49.244;7.726;2023-02-01T08:39:34;98948.63;;;2.12;66.00
58467;BME280;44255;49.244;7.726;2023-02-01T08:42:01;98950.47;;;2.08;64.87
58467;BME280;44255;49.244;7.726;2023-02-01T08:44:45;98956.94;;;2.67;63.95
58467;BME280;44255;49.244;7.726;2023-02-01T08:47:10;98950.84;;;2.63;62.66
58467;BME280;44255;49.244;7.726;2023-02-01T08:49:36;98961.00;;;2.49;63.10
58467;BME280;44255;49.244;7.726;2023-02-01T08:52:02;98956.44;;;2.52;63.28
58467;BME280;44255;49.244;7.726;2023-02-01T08:54:27;98981.00;;;1.91;64.09
58467;BME280;44255;49.244;7.726;2023-02-01T08:56:52;98963.56;;;2.16;63.90
58467;BME280;44255;49.244;7.726;2023-02-01T08:59:19;98954.31;;;2.99;62.50
58467;BME280;44255;49.244;7.726;2023-02-01T09:01:44;98950.47;;;2.76;62.61
58467;BME280;44255;49.244;7.726;2023-02-01T09:04:09;98957.09;;;2.62;63.24
58467;BME280;44255;49.244;7.726;2023-02-01T09:06:35;98953.06;;;2.09;64.19
58467;BME280;44255;49.244;7.726;2023-02-01T09:09:00;98954.66;;;2.53;63.72
58467;BME280;44255;49.244;7.726;2023-02-01T09:11:25;98955.00;;;2.39;63.00
58467;BME280;44255;49.244;7.726;2023-02-01T09:13:51;98955.75;;;2.79;61.64
58467;BME280;44255;49.244;7.726;2023-02-01T09:16:17;98960.53;;;2.98;61.49
58467;BME280;44255;49.244;7.726;2023-02-01T09:18:42;98962.53;;;2.89;61.63
58467;BME280;44255;49.244;7.726;2023-02-01T09:21:08;98941.59;;;3.08;60.62
58467;BME280;44255;49.244;7.726;2023-02-01T09:23:34;98953.41;;;2.66;61.89
58467;BME280;44255;49.244;7.726;2023-02-01T09:26:03;98950.44;;;3.09;61.42
58467;BME280;44255;49.244;7.726;2023-02-01T09:28:30;98960.16;;;3.10;61.22
58467;BME280;44255;49.244;7.726;2023-02-01T09:30:56;98971.13;;;2.67;62.15
58467;BME280;44255;49.244;7.726;2023-02-01T09:33:25;98961.47;;;2.97;61.19
58467;BME280;44255;49.244;7.726;2023-02-01T09:35:58;98961.56;;;3.23;59.99
58467;BME280;44255;49.244;7.726;2023-02-01T09:38:24;98974.56;;;3.04;60.33
58467;BME280;44255;49.244;7.726;2023-02-01T09:40:50;98981.06;;;2.61;61.30
58467;BME280;44255;49.244;7.726;2023-02-01T09:43:24;98987.31;;;2.91;60.53
58467;BME280;44255;49.244;7.726;2023-02-01T09:45:54;98997.75;;;2.31;61.84
58467;BME280;44255;49.244;7.726;2023-02-01T09:48:24;99001.16;;;2.36;61.49
58467;BME280;44255;49.244;7.726;2023-02-01T09:50:55;99014.44;;;2.38;61.81
58467;BME280;44255;49.244;7.726;2023-02-01T09:53:27;99031.41;;;2.70;60.97
58467;BME280;44255;49.244;7.726;2023-02-01T09:55:58;99022.75;;;2.93;60.77
58467;BME280;44255;49.244;7.726;2023-02-01T10:00:58;99024.44;;;2.98;60.18
58467;BME280;44255;49.244;7.726;2023-02-01T10:03:27;99029.97;;;2.90;61.06
58467;BME280;44255;49.244;7.726;2023-02-01T10:15:04;99038.78;;;2.92;59.62
58467;BME280;44255;49.244;7.726;2023-02-01T10:23:32;99036.47;;;2.79;59.15
58467;BME280;44255;49.244;7.726;2023-02-01T10:26:23;99022.75;;;2.93;58.24
58467;BME280;44255;49.244;7.726;2023-02-01T10:29:00;99018.69;;;3.13;59.11
58467;BME280;44255;49.244;7.726;2023-02-01T10:31:28;99052.50;;;3.09;58.48
58467;BME280;44255;49.244;7.726;2023-02-01T10:33:59;99045.56;;;2.71;58.83
58467;BME280;44255;49.244;7.726;2023-02-01T10:36:32;99037.50;;;3.07;57.72
58467;BME280;44255;49.244;7.726;2023-02-01T10:39:00;99048.81;;;3.15;57.70
58467;BME280;44255;49.244;7.726;2023-02-01T10:41:35;99044.88;;;2.95;58.11
58467;BME280;44255;49.244;7.726;2023-02-01T10:44:05;99047.94;;;3.15;57.87
58467;BME280;44255;49.244;7.726;2023-02-01T10:46:33;99029.44;;;3.40;56.96
58467;BME280;44255;49.244;7.726;2023-02-01T10:49:00;99046.06;;;2.85;57.59
58467;BME280;44255;49.244;7.726;2023-02-01T10:51:33;99024.25;;;2.36;59.27
58467;BME280;44255;49.244;7.726;2023-02-01T10:54:10;99011.69;;;2.76;58.44
58467;BME280;44255;49.244;7.726;2023-02-01T10:56:38;99028.28;;;2.52;58.62
58467;BME280;44255;49.244;7.726;2023-02-01T10:59:15;99006.66;;;2.30;58.98
58467;BME280;44255;49.244;7.726;2023-02-01T11:01:42;98992.28;;;3.05;56.28
58467;BME280;44255;49.244;7.726;2023-02-01T11:04:11;98992.59;;;3.55;56.04
58467;BME280;44255;49.244;7.726;2023-02-01T11:06:46;98982.56;;;3.03;56.34
58467;BME280;44255;49.244;7.726;2023-02-01T11:09:24;98980.75;;;3.35;56.26
58467;BME280;44255;49.244;7.726;2023-02-01T11:14:16;98981.47;;;2.45;58.45
58467;BME280;44255;49.244;7.726;2023-02-01T11:16:47;98968.28;;;2.74;57.13
58467;BME280;44255;49.244;7.726;2023-02-01T11:19:14;98973.28;;;2.53;57.22
58467;BME280;44255;49.244;7.726;2023-02-01T11:21:41;98962.00;;;2.76;57.00
58467;BME280;44255;49.244;7.726;2023-02-01T11:24:20;98959.69;;;2.29;58.14
58467;BME280;44255;49.244;7.726;2023-02-01T11:26:47;98973.75;;;1.98;58.52
58467;BME280;44255;49.244;7.726;2023-02-01T11:29:15;98960.16;;;2.47;57.46
58467;BME280;44255;49.244;7.726;2023-02-01T11:31:43;98962.00;;;2.45;57.10
58467;BME280;44255;49.244;7.726;2023-02-01T11:34:17;98972.69;;;2.42;57.13
58467;BME280;44255;49.244;7.726;2023-02-01T11:36:46;98965.31;;;2.53;57.33
58467;BME280;44255;49.244;7.726;2023-02-01T11:44:25;98969.56;;;2.92;56.47
58467;BME280;44255;49.244;7.726;2023-02-01T11:46:52;98967.78;;;2.59;56.47
58467;BME280;44255;49.244;7.726;2023-02-01T11:54:41;98980.03;;;2.98;56.26
58467;BME280;44255;49.244;7.726;2023-02-01T11:57:21;98972.09;;;2.97;55.78
58467;BME280;44255;49.244;7.726;2023-02-01T12:00:11;98985.97;;;2.05;57.92
58467;BME280;44255;49.244;7.726;2023-02-01T12:05:38;98972.63;;;2.45;56.68
58467;BME280;44255;49.244;7.726;2023-02-01T12:11:30;98979.50;;;2.53;56.62
58467;BME280;44255;49.244;7.726;2023-02-01T12:14:16;98973.13;;;2.23;56.88
58467;BME280;44255;49.244;7.726;2023-02-01T12:17:22;98969.94;;;2.08;57.16
58467;BME280;44255;49.244;7.726;2023-02-01T12:20:28;98963.66;;;2.49;56.89
58467;BME280;44255;49.244;7.726;2023-02-01T12:23:10;98968.41;;;2.36;56.66
58467;BME280;44255;49.244;7.726;2023-02-01T12:28:41;98962.41;;;2.62;55.93
58467;BME280;44255;49.244;7.726;2023-02-01T12:36:47;98963.88;;;2.73;54.89
58467;BME280;44255;49.244;7.726;2023-02-01T12:39:23;98968.41;;;2.69;54.53
58467;BME280;44255;49.244;7.726;2023-02-01T12:41:54;98962.00;;;2.45;55.89
58467;BME280;44255;49.244;7.726;2023-02-01T12:47:18;98967.03;;;2.19;55.40
58467;BME280;44255;49.244;7.726;2023-02-01T12:49:49;98951.53;;;2.35;55.80
58467;BME280;44255;49.244;7.726;2023-02-01T12:52:33;98943.75;;;2.29;55.84
58467;BME280;44255;49.244;7.726;2023-02-01T12:55:06;98927.88;;;2.59;54.31
58467;BME280;44255;49.244;7.726;2023-02-01T12:57:42;98930.50;;;2.61;54.42
58467;BME280;44255;49.244;7.726;2023-02-01T13:00:23;98924.47;;;2.86;54.37
58467;BME280;44255;49.244;7.726;2023-02-01T13:02:54;98917.91;;;2.33;55.16
58467;BME280;44255;49.244;7.726;2023-02-01T13:05:24;98909.56;;;2.80;54.26
58467;BME280;44255;49.244;7.726;2023-02-01T13:08:01;98901.59;;;2.80;54.38
58467;BME280;44255;49.244;7.726;2023-02-01T13:10:42;98899.38;;;2.64;54.77
58467;BME280;44255;49.244;7.726;2023-02-01T13:16:12;98890.91;;;2.50;54.92
58467;BME280;44255;49.244;7.726;2023-02-01T13:18:43;98887.56;;;2.42;54.49
58467;BME280;44255;49.244;7.726;2023-02-01T13:21:27;98868.28;;;2.65;54.47
58467;BME280;44255;49.244;7.726;2023-02-01T13:23:55;98870.53;;;3.09;53.48
58467;BME280;44255;49.244;7.726;2023-02-01T13:26:21;98862.94;;;3.53;52.69
58467;BME280;44255;49.244;7.726;2023-02-01T13:29:04;98860.84;;;3.90;51.76
58467;BME280;44255;49.244;7.726;2023-02-01T13:43:12;98871.03;;;3.50;52.60
58467;BME280;44255;49.244;7.726;2023-02-01T13:45:48;98862.16;;;2.93;52.92
58467;BME280;44255;49.244;7.726;2023-02-01T13:48:31;98862.13;;;3.23;53.10
58467;BME280;44255;49.244;7.726;2023-02-01T13:50:58;98877.13;;;2.97;54.27
58467;BME280;44255;49.244;7.726;2023-02-01T13:53:33;98879.06;;;3.49;52.93
58467;BME280;44255;49.244;7.726;2023-02-01T13:56:02;98894.25;;;3.18;52.95
58467;BME280;44255;49.244;7.726;2023-02-01T13:58:39;98873.44;;;3.01;53.60
58467;BME280;44255;49.244;7.726;2023-02-01T14:03:59;98882.44;;;2.97;53.11
58467;BME280;44255;49.244;7.726;2023-02-01T14:11:38;98878.81;;;2.36;54.73
58467;BME280;44255;49.244;7.726;2023-02-01T14:16:38;98868.66;;;3.13;52.70
58467;BME280;44255;49.244;7.726;2023-02-01T14:19:08;98870.59;;;3.36;52.54
58467;BME280;44255;49.244;7.726;2023-02-01T14:21:55;98876.19;;;2.98;52.98
58467;BME280;44255;49.244;7.726;2023-02-01T14:24:29;98872.94;;;3.18;53.20
58467;BME280;44255;49.244;7.726;2023-02-01T14:26:57;98871.81;;;3.26;52.57
58467;BME280;44255;49.244;7.726;2023-02-01T14:29:29;98887.50;;;2.76;54.23
58467;BME280;44255;49.244;7.726;2023-02-01T14:32:05;98878.19;;;3.20;53.20
58467;BME280;44255;49.244;7.726;2023-02-01T14:43:03;98879.84;;;3.52;52.68
58467;BME280;44255;49.244;7.726;2023-02-01T15:01:24;98884.31;;;2.93;54.72
58467;BME280;44255;49.244;7.726;2023-02-01T15:04:09;98893.78;;;3.32;54.26
58467;BME280;44255;49.244;7.726;2023-02-01T15:06:42;98889.03;;;2.84;55.06
58467;BME280;44255;49.244;7.726;2023-02-01T15:12:05;98879.63;;;3.32;54.04
58467;BME280;44255;49.244;7.726;2023-02-01T15:14:46;98883.47;;;3.50;54.17
58467;BME280;44255;49.244;7.726;2023-02-01T15:20:14;98883.22;;;3.31;54.13
58467;BME280;44255;49.244;7.726;2023-02-01T15:22:38;98884.22;;;3.82;53.31
58467;BME280;44255;49.244;7.726;2023-02-01T15:25:04;98894.50;;;3.37;53.46
58467;BME280;44255;49.244;7.726;2023-02-01T15:27:31;98890.03;;;3.40;54.20
58467;BME280;44255;49.244;7.726;2023-02-01T15:30:27;98889.09;;;3.69;53.71
58467;BME280;44255;49.244;7.726;2023-02-01T15:40:56;98892.25;;;3.53;53.73
58467;BME280;44255;49.244;7.726;2023-02-01T15:43:23;98892.25;;;2.95;54.62
58467;BME280;44255;49.244;7.726;2023-02-01T15:45:49;98905.69;;;3.50;53.74
58467;BME280;44255;49.244;7.726;2023-02-01T15:48:22;98912.09;;;3.15;54.18
58467;BME280;44255;49.244;7.726;2023-02-01T15:50:48;98897.22;;;3.64;54.08
58467;BME280;44255;49.244;7.726;2023-02-01T15:53:20;98894.44;;;3.41;54.12
58467;BME280;44255;49.244;7.726;2023-02-01T15:55:47;98897.47;;;3.57;53.59
58467;BME280;44255;49.244;7.726;2023-02-01T15:58:19;98889.38;;;3.03;55.48
58467;BME280;44255;49.244;7.726;2023-02-01T16:00:48;98892.28;;;3.52;54.45
58467;BME280;44255;49.244;7.726;2023-02-01T16:03:44;98893.69;;;3.64;53.30
58467;BME280;44255;49.244;7.726;2023-02-01T16:06:28;98897.78;;;3.74;53.79
58467;BME280;44255;49.244;7.726;2023-02-01T16:11:41;98904.94;;;3.45;55.19
58467;BME280;44255;49.244;7.726;2023-02-01T16:14:11;98910.59;;;3.63;54.32
58467;BME280;44255;49.244;7.726;2023-02-01T16:16:36;98914.03;;;3.09;56.00
58467;BME280;44255;49.244;7.726;2023-02-01T16:19:02;98915.75;;;3.69;54.06
58467;BME280;44255;49.244;7.726;2023-02-01T16:21:27;98925.53;;;3.40;54.72
58467;BME280;44255;49.244;7.726;2023-02-01T16:23:53;98926.81;;;3.55;54.49
58467;BME280;44255;49.244;7.726;2023-02-01T16:26:18;98927.00;;;3.22;54.92
58467;BME280;44255;49.244;7.726;2023-02-01T16:28:44;98930.41;;;3.54;54.80
58467;BME280;44255;49.244;7.726;2023-02-01T16:31:12;98931.22;;;3.28;55.49
58467;BME280;44255;49.244;7.726;2023-02-01T16:33:50;98927.16;;;3.44;54.80
58467;BME280;44255;49.244;7.726;2023-02-01T16:36:16;98929.44;;;3.58;54.72
58467;BME280;44255;49.244;7.726;2023-02-01T16:38:42;98931.78;;;3.09;55.62
58467;BME280;44255;49.244;7.726;2023-02-01T16:41:11;98936.50;;;3.31;54.96
58467;BME280;44255;49.244;7.726;2023-02-01T16:43:38;98937.25;;;3.91;53.21
58467;BME280;44255;49.244;7.726;2023-02-01T16:46:03;98948.06;;;3.87;53.14
58467;BME280;44255;49.244;7.726;2023-02-01T16:48:31;98946.75;;;3.72;53.67
58467;BME280;44255;49.244;7.726;2023-02-01T16:51:01;98945.41;;;3.87;53.11
58467;BME280;44255;49.244;7.726;2023-02-01T16:53:29;98945.31;;;3.61;53.92
58467;BME280;44255;49.244;7.726;2023-02-01T16:55:55;98944.53;;;3.58;53.94
58467;BME280;44255;49.244;7.726;2023-02-01T16:58:23;98947.31;;;3.24;55.09
58467;BME280;44255;49.244;7.726;2023-02-01T17:00:49;98959.00;;;3.49;54.63
58467;BME280;44255;49.244;7.726;2023-02-01T17:03:16;98953.06;;;3.41;53.98
58467;BME280;44255;49.244;7.726;2023-02-01T17:05:53;98948.91;;;3.30;53.91
58467;BME280;44255;49.244;7.726;2023-02-01T17:08:27;98953.06;;;3.41;54.04
58467;BME280;44255;49.244;7.726;2023-02-01T17:10:53;98945.44;;;3.28;54.39
58467;BME280;44255;49.244;7.726;2023-02-01T17:13:18;98950.63;;;3.33;54.33
58467;BME280;44255;49.244;7.726;2023-02-01T17:15:58;98954.22;;;3.60;53.39
58467;BME280;44255;49.244;7.726;2023-02-01T17:18:27;98960.59;;;3.26;54.02
58467;BME280;44255;49.244;7.726;2023-02-01T17:20:55;98960.00;;;3.75;53.15
58467;BME280;44255;49.244;7.726;2023-02-01T17:23:21;98954.56;;;3.19;54.32
58467;BME280;44255;49.244;7.726;2023-02-01T17:25:46;98973.00;;;3.27;53.59
58467;BME280;44255;49.244;7.726;2023-02-01T17:28:12;98961.28;;;3.33;53.64
58467;BME280;44255;49.244;7.726;2023-02-01T17:30:38;98954.53;;;2.58;54.86
58467;BME280;44255;49.244;7.726;2023-02-01T17:33:07;98954.84;;;3.10;53.96
58467;BME280;44255;49.244;7.726;2023-02-01T17:35:38;98956.41;;;3.76;52.18
58467;BME280;44255;49.244;7.726;2023-02-01T17:38:08;98956.44;;;3.46;52.77
58467;BME280;44255;49.244;7.726;2023-02-01T17:40:35;98948.00;;;3.31;52.53
58467;BME280;44255;49.244;7.726;2023-02-01T17:43:00;98952.28;;;3.37;52.89
58467;BME280;44255;49.244;7.726;2023-02-01T17:45:34;98939.41;;;3.51;52.46
58467;BME280;44255;49.244;7.726;2023-02-01T17:48:02;98954.22;;;3.00;53.44
58467;BME280;44255;49.244;7.726;2023-02-01T17:50:30;98942.97;;;2.59;54.60
58467;BME280;44255;49.244;7.726;2023-02-01T17:52:55;98949.28;;;2.88;54.11
58467;BME280;44255;49.244;7.726;2023-02-01T17:55:23;98947.22;;;3.28;53.28
58467;BME280;44255;49.244;7.726;2023-02-01T17:57:49;98953.66;;;3.20;53.21
58467;BME280;44255;49.244;7.726;2023-02-01T18:00:16;98948.66;;;3.68;51.67
58467;BME280;44255;49.244;7.726;2023-02-01T18:02:42;98952.31;;;3.92;52.05
58467;BME280;44255;49.244;7.726;2023-02-01T18:07:43;98953.38;;;3.00;53.50
58467;BME280;44255;49.244;7.726;2023-02-01T18:10:09;98954.22;;;3.32;52.62
58467;BME280;44255;49.244;7.726;2023-02-01T18:12:35;98956.13;;;3.27;53.15
58467;BME280;44255;49.244;7.726;2023-02-01T18:15:00;98962.19;;;3.02;53.50
58467;BME280;44255;49.244;7.726;2023-02-01T18:17:26;98967.31;;;3.08;53.70
58467;BME280;44255;49.244;7.726;2023-02-01T18:19:51;98958.00;;;3.53;53.06
58467;BME280;44255;49.244;7.726;2023-02-01T18:22:20;98966.78;;;3.27;53.05
58467;BME280;44255;49.244;7.726;2023-02-01T18:24:48;98973.00;;;3.27;53.55
58467;BME280;44255;49.244;7.726;2023-02-01T18:27:13;98971.25;;;3.56;52.89
58467;BME280;44255;49.244;7.726;2023-02-01T18:29:38;98970.94;;;3.37;52.97
58467;BME280;44255;49.244;7.726;2023-02-01T18:32:03;98978.22;;;2.67;54.95
58467;BME280;44255;49.244;7.726;2023-02-01T18:34:28;98969.88;;;2.81;54.73
58467;BME280;44255;49.244;7.726;2023-02-01T18:36:54;98973.38;;;2.83;55.18
58467;BME280;44255;49.244;7.726;2023-02-01T18:39:19;98962.56;;;3.19;54.27
58467;BME280;44255;49.244;7.726;2023-02-01T18:41:45;98982.97;;;2.89;54.43
58467;BME280;44255;49.244;7.726;2023-02-01T18:44:16;98982.69;;;2.98;54.88
58467;BME280;44255;49.244;7.726;2023-02-01T18:46:42;98981.59;;;2.74;55.02
58467;BME280;44255;49.244;7.726;2023-02-01T18:49:07;98980.22;;;2.92;55.23
58467;BME280;44255;49.244;7.726;2023-02-01T18:51:33;98981.03;;;3.26;54.03
58467;BME280;44255;49.244;7.726;2023-02-01T18:53:58;98976.44;;;2.99;54.88
58467;BME280;44255;49.244;7.726;2023-02-01T18:56:23;98973.31;;;3.16;54.71
58467;BME280;44255;49.244;7.726;2023-02-01T18:58:49;98981.66;;;3.04;54.76
58467;BME280;44255;49.244;7.726;2023-02-01T19:01:17;98970.75;;;3.13;54.41
58467;BME280;44255;49.244;7.726;2023-02-01T19:03:43;98971.53;;;2.85;55.71
58467;BME280;44255;49.244;7.726;2023-02-01T19:06:08;98965.69;;;3.04;54.75
58467;BME280;44255;49.244;7.726;2023-02-01T19:08:36;98963.25;;;2.94;55.98
58467;BME280;44255;49.244;7.726;2023-02-01T19:11:08;98959.34;;;3.38;54.72
58467;BME280;44255;49.244;7.726;2023-02-01T19:13:35;98965.16;;;2.91;55.45
58467;BME280;44255;49.244;7.726;2023-02-01T19:16:11;98951.53;;;3.02;55.44
58467;BME280;44255;49.244;7.726;2023-02-01T19:18:37;98949.88;;;2.98;55.71
58467;BME280;44255;49.244;7.726;2023-02-01T19:21:05;98949.09;;;2.94;55.79
58467;BME280;44255;49.244;7.726;2023-02-01T19:23:30;98954.47;;;3.22;55.49
58467;BME280;44255;49.244;7.726;2023-02-01T19:25:59;98958.00;;;2.93;56.39
58467;BME280;44255;49.244;7.726;2023-02-01T19:28:24;98959.38;;;2.75;56.93
58467;BME280;44255;49.244;7.726;2023-02-01T19:30:49;98962.88;;;2.77;56.79
58467;BME280;44255;49.244;7.726;2023-02-01T19:33:16;98955.09;;;2.69;56.63
58467;BME280;44255;49.244;7.726;2023-02-01T19:35:41;98972.13;;;2.63;57.53
58467;BME280;44255;49.244;7.726;2023-02-01T19:38:06;98960.78;;;2.88;57.05
58467;BME280;44255;49.244;7.726;2023-02-01T19:40:31;98955.03;;;2.72;56.92
58467;BME280;44255;49.244;7.726;2023-02-01T19:42:57;98964.66;;;3.08;56.12
58467;BME280;44255;49.244;7.726;2023-02-01T19:45:22;98970.25;;;2.67;57.34